Terminal Aerodrome Forecast
Issued by NWS Upton, NY

Home | Current Version | Previous Version | Text Only | Print | Product List | Glossary On
Versions: 1 2 3 4 5 6 7 8 9 10 11 12 13 14 15 16 17 18 19 20 21 22 23 24 25 26 27 28 29 30 31 32 33 34 35
011
FTUS41 KOKX 231734
TAFJFK
TAF
KJFK 231734Z 2318/2424 27016G22KT P6SM FEW060
     FM240000 30012KT P6SM SKC
     FM240300 33007KT P6SM SKC
     FM241500 30007KT P6SM SKC
     FM241700 18012KT P6SM SKC=

USA.gov is the U.S. government's official web portal to all federal, state and local government web resources and services.